Time;durP1;ratioP1;P1;durP2;ratioP2;P2;SDS_P1;SDS_P2;PMS_P1;PMS_P2;Temp;Humidity;BMP_temperature;BMP_pressure;BME280_temperature;BME280_humidity;BME280_pressure;Samples;Min_cycle;Max_cycle;Signal;HPM_P1;HPM_P2
2023/04/25 00:01:30;;;;;;;4.50;2.60;;;11.90;99.90;;;;;;4214065;28;20373;-56
2023/04/25 00:03:32;;;;;;;6.70;2.17;;;11.80;99.90;;;;;;4213599;28;20096;-53
2023/04/25 00:05:34;;;;;;;6.13;2.50;;;11.90;99.90;;;;;;4213173;28;20040;-54
2023/04/25 00:07:38;;;;;;;5.75;2.25;;;11.90;99.90;;;;;;4213906;28;20050;-55
2023/04/25 00:09:41;;;;;;;4.93;2.38;;;11.80;99.90;;;;;;4213984;28;20123;-56
2023/04/25 00:11:43;;;;;;;5.47;2.50;;;11.80;99.90;;;;;;4214100;28;20044;-56
2023/04/25 00:13:46;;;;;;;5.85;2.63;;;11.70;99.90;;;;;;4213852;28;20044;-55
2023/04/25 00:15:50;;;;;;;3.88;2.30;;;11.70;99.90;;;;;;4213083;28;20181;-53
2023/04/25 00:17:52;;;;;;;6.00;2.45;;;11.60;99.90;;;;;;4213584;28;20041;-53
2023/04/25 00:19:55;;;;;;;8.35;2.88;;;11.60;99.90;;;;;;4213898;28;20048;-53
2023/04/25 00:21:58;;;;;;;5.30;2.80;;;11.60;99.90;;;;;;4213463;28;20141;-55
2023/04/25 00:24:01;;;;;;;8.20;2.65;;;11.70;99.90;;;;;;4213882;28;20052;-55
2023/04/25 00:26:04;;;;;;;8.20;2.75;;;11.60;99.90;;;;;;4212606;28;20050;-56
2023/04/25 00:28:06;;;;;;;5.97;2.67;;;11.60;99.90;;;;;;4213595;28;20545;-55
2023/04/25 00:30:09;;;;;;;8.35;2.53;;;11.50;99.90;;;;;;4213060;28;20082;-55
2023/04/25 00:32:11;;;;;;;5.20;2.72;;;11.50;99.90;;;;;;4212980;28;20464;-54
2023/04/25 00:34:14;;;;;;;7.07;2.63;;;11.40;99.90;;;;;;4195382;28;20036;-55
2023/04/25 00:36:19;;;;;;;4.50;2.38;;;11.40;99.90;;;;;;4195113;28;20055;-55
2023/04/25 00:38:21;;;;;;;6.13;2.55;;;11.50;99.90;;;;;;4213493;28;20044;-56
2023/04/25 00:40:25;;;;;;;6.85;2.90;;;11.40;99.90;;;;;;4213278;28;20048;-56
2023/04/25 00:42:29;;;;;;;6.70;2.75;;;11.40;99.90;;;;;;4213541;28;20059;-55
2023/04/25 00:44:32;;;;;;;5.75;2.83;;;11.40;99.90;;;;;;4213312;28;20074;-56
2023/04/25 00:46:35;;;;;;;8.35;2.50;;;11.40;99.90;;;;;;4212315;28;20047;-55
2023/04/25 00:48:37;;;;;;;9.15;3.15;;;11.40;99.90;;;;;;4219045;28;20082;-56
2023/04/25 00:50:40;;;;;;;7.28;2.58;;;11.40;99.90;;;;;;4219157;28;20043;-56
2023/04/25 00:52:44;;;;;;;7.22;2.40;;;11.30;99.90;;;;;;4219082;28;20048;-55
2023/04/25 00:54:47;;;;;;;6.55;2.60;;;11.30;99.90;;;;;;4219119;28;20547;-63
2023/04/25 00:56:51;;;;;;;8.82;2.65;;;11.30;99.90;;;;;;4218080;28;20055;-56
2023/04/25 00:58:59;;;;;;;9.65;2.55;;;11.40;99.90;;;;;;4219069;28;20052;-56
2023/04/25 01:01:01;;;;;;;5.57;2.78;;;11.30;99.90;;;;;;4218478;28;20051;-56
2023/04/25 01:03:03;;;;;;;6.82;2.88;;;11.30;99.90;;;;;;4219377;28;20044;-56
2023/04/25 01:05:06;;;;;;;7.75;2.35;;;11.30;99.90;;;;;;4218414;28;20428;-58
2023/04/25 01:07:09;;;;;;;7.90;2.70;;;11.30;99.90;;;;;;4218776;28;20039;-56
2023/04/25 01:09:13;;;;;;;6.07;2.67;;;11.30;99.90;;;;;;4219192;28;20040;-56
2023/04/25 01:11:15;;;;;;;8.98;3.28;;;11.30;99.90;;;;;;4219060;28;20409;-55
2023/04/25 01:13:18;;;;;;;10.63;2.80;;;11.30;99.90;;;;;;4219160;28;20062;-55
2023/04/25 01:15:20;;;;;;;10.20;2.47;;;11.30;99.90;;;;;;4217759;28;20451;-58
2023/04/25 01:17:23;;;;;;;7.18;2.90;;;11.20;99.90;;;;;;4218798;28;20429;-56
2023/04/25 01:19:25;;;;;;;10.43;2.88;;;11.20;99.90;;;;;;4218622;28;20044;-56
2023/04/25 01:21:30;;;;;;;5.97;2.40;;;11.10;99.90;;;;;;4218608;28;20097;-56
2023/04/25 01:23:33;;;;;;;6.05;2.55;;;11.10;99.90;;;;;;4218925;28;20047;-59
2023/04/25 01:25:35;;;;;;;10.15;2.65;;;11.00;99.90;;;;;;4217860;28;20051;-56
2023/04/25 01:27:38;;;;;;;8.00;2.90;;;11.00;99.90;;;;;;4218745;28;20485;-55
2023/04/25 01:29:40;;;;;;;8.13;2.88;;;11.00;99.90;;;;;;4218270;28;20056;-57
2023/04/25 01:31:46;;;;;;;10.65;3.20;;;11.00;99.90;;;;;;4218986;28;20036;-57
2023/04/25 01:33:48;;;;;;;6.60;3.17;;;11.00;99.90;;;;;;4218563;28;20044;-56
2023/04/25 01:35:51;;;;;;;11.73;3.15;;;11.10;99.90;;;;;;4217686;28;20126;-56
2023/04/25 01:37:55;;;;;;;7.85;3.15;;;11.00;99.90;;;;;;4218591;28;20048;-56
2023/04/25 01:39:57;;;;;;;10.23;3.00;;;10.90;99.90;;;;;;4218643;28;20049;-56
2023/04/25 01:42:00;;;;;;;9.63;2.60;;;11.00;99.90;;;;;;4218893;28;20080;-56
2023/04/25 01:44:02;;;;;;;7.97;2.70;;;10.90;99.90;;;;;;4218493;28;20056;-60
2023/04/25 01:46:04;;;;;;;8.65;2.88;;;10.90;99.90;;;;;;4219584;28;20205;-55
2023/04/25 01:48:07;;;;;;;6.57;2.60;;;11.00;99.90;;;;;;4218733;28;20040;-56
2023/04/25 01:50:11;;;;;;;10.50;2.75;;;11.00;99.90;;;;;;4218866;28;20199;-56
2023/04/25 01:52:13;;;;;;;7.45;2.92;;;11.00;99.90;;;;;;4218401;28;20047;-55
2023/04/25 01:54:18;;;;;;;11.55;3.40;;;11.10;99.90;;;;;;4218397;28;20044;-56
2023/04/25 01:56:20;;;;;;;9.90;2.92;;;10.90;99.90;;;;;;4217673;28;20056;-56
2023/04/25 01:58:22;;;;;;;12.98;3.80;;;10.80;99.90;;;;;;4217292;28;20048;-56
2023/04/25 02:00:24;;;;;;;12.10;3.45;;;10.80;99.90;;;;;;4215801;28;20044;-56
2023/04/25 02:02:26;;;;;;;10.35;2.92;;;10.80;99.90;;;;;;4216170;28;20105;-56
2023/04/25 02:04:28;;;;;;;13.45;3.00;;;10.80;99.90;;;;;;4215777;28;20047;-57
2023/04/25 02:06:31;;;;;;;9.27;3.25;;;10.80;99.90;;;;;;4214566;28;20132;-57
2023/04/25 02:08:33;;;;;;;12.80;3.45;;;10.90;99.90;;;;;;4215863;28;20135;-56
2023/04/25 02:10:37;;;;;;;9.43;3.63;;;10.90;99.90;;;;;;4215792;28;20048;-55
2023/04/25 02:12:39;;;;;;;12.32;3.47;;;10.90;99.90;;;;;;4215324;28;20397;-56
2023/04/25 02:14:41;;;;;;;9.55;3.28;;;10.90;99.90;;;;;;4215939;28;20051;-56
2023/04/25 02:16:43;;;;;;;8.00;3.47;;;11.00;99.90;;;;;;4214653;28;20047;-56
2023/04/25 02:18:46;;;;;;;10.32;3.42;;;10.90;99.90;;;;;;4197599;28;20056;-56
2023/04/25 02:20:48;;;;;;;12.18;3.88;;;10.80;99.90;;;;;;4215493;28;20385;-55
2023/04/25 02:22:51;;;;;;;12.77;3.85;;;10.80;99.90;;;;;;4215500;28;20040;-55
2023/04/25 02:24:53;;;;;;;7.07;3.28;;;10.90;99.90;;;;;;4215362;28;20058;-56
2023/04/25 02:26:57;;;;;;;5.57;3.28;;;11.00;99.90;;;;;;4214144;28;20068;-55
2023/04/25 02:28:59;;;;;;;12.38;3.78;;;11.10;99.90;;;;;;4215503;28;20543;-56
2023/04/25 02:31:01;;;;;;;10.55;3.45;;;11.10;99.90;;;;;;4215373;28;20040;-55
2023/04/25 02:33:04;;;;;;;10.98;3.67;;;11.10;99.90;;;;;;4215315;28;20098;-56
2023/04/25 02:35:06;;;;;;;9.80;3.20;;;11.00;99.90;;;;;;4197475;28;20402;-55
2023/04/25 02:37:08;;;;;;;14.55;3.20;;;10.90;99.90;;;;;;4196452;28;20049;-56
2023/04/25 02:39:11;;;;;;;10.38;3.88;;;11.00;99.90;;;;;;4215291;28;20055;-55
2023/04/25 02:41:13;;;;;;;10.80;3.75;;;11.10;99.90;;;;;;4215400;28;20101;-55
2023/04/25 02:43:17;;;;;;;7.55;3.20;;;11.00;99.90;;;;;;4214953;28;20048;-57
2023/04/25 02:45:19;;;;;;;14.73;4.00;;;11.00;99.90;;;;;;4214802;28;20082;-56
2023/04/25 02:47:21;;;;;;;12.93;4.28;;;11.00;99.90;;;;;;4214469;28;20123;-59
2023/04/25 02:49:23;;;;;;;9.05;4.20;;;10.90;99.90;;;;;;4215110;28;20391;-57
2023/04/25 02:51:26;;;;;;;8.63;3.80;;;10.90;99.90;;;;;;4215289;28;20047;-56
2023/04/25 02:53:28;;;;;;;11.68;4.00;;;10.90;99.90;;;;;;4215175;28;20071;-55
2023/04/25 02:55:30;;;;;;;8.75;3.55;;;10.90;99.90;;;;;;4214376;28;20114;-56
2023/04/25 02:57:35;;;;;;;14.40;4.03;;;10.90;99.90;;;;;;4214610;28;20455;-56
2023/04/25 02:59:38;;;;;;;13.40;3.83;;;11.00;99.90;;;;;;4215027;28;20048;-55
2023/04/25 03:01:40;;;;;;;14.80;4.88;;;11.00;99.90;;;;;;4196867;28;20488;-56
2023/04/25 03:03:43;;;;;;;12.68;3.60;;;10.90;99.90;;;;;;4215328;28;20044;-56
2023/04/25 03:05:46;;;;;;;14.30;3.92;;;10.90;99.90;;;;;;4214094;28;20070;-56
2023/04/25 03:07:48;;;;;;;11.63;3.78;;;10.80;99.90;;;;;;4214600;28;20048;-56
2023/04/25 03:09:50;;;;;;;16.27;4.28;;;10.80;99.90;;;;;;4214604;28;20090;-56
2023/04/25 03:11:52;;;;;;;13.80;4.20;;;10.80;99.90;;;;;;4213594;28;20079;-55
2023/04/25 03:13:55;;;;;;;15.27;4.75;;;10.90;99.90;;;;;;4214616;28;20497;-56
2023/04/25 03:15:58;;;;;;;12.45;4.32;;;10.70;99.90;;;;;;4213789;28;20050;-54
2023/04/25 03:18:00;;;;;;;12.15;4.05;;;10.70;99.90;;;;;;4214517;28;20250;-55
2023/04/25 03:20:04;;;;;;;9.90;4.15;;;10.80;99.90;;;;;;4214720;28;20052;-55
2023/04/25 03:22:06;;;;;;;13.15;3.92;;;10.80;99.90;;;;;;4213876;28;20048;-56
2023/04/25 03:26:31;;;;;;;14.60;4.40;;;10.80;99.90;;;;;;4915542;23;21001;-56
2023/04/25 03:28:33;;;;;;;15.43;4.47;;;10.70;99.90;;;;;;4163447;28;20295;-64
2023/04/25 03:30:35;;;;;;;14.13;4.35;;;10.70;99.90;;;;;;4146637;28;20042;-57
2023/04/25 03:32:39;;;;;;;13.68;4.20;;;10.80;99.90;;;;;;4148530;28;20048;-61
2023/04/25 03:34:41;;;;;;;14.32;4.43;;;10.80;99.90;;;;;;4148644;28;20045;-55
2023/04/25 03:36:43;;;;;;;18.15;4.57;;;10.80;99.90;;;;;;4147725;28;20483;-56
2023/04/25 03:38:45;;;;;;;13.30;4.40;;;10.70;99.90;;;;;;4148326;28;20038;-57
2023/04/25 03:40:47;;;;;;;11.23;4.28;;;10.80;99.90;;;;;;4148644;28;20056;-56
2023/04/25 03:42:49;;;;;;;20.67;5.03;;;10.80;99.90;;;;;;4148754;28;20050;-64
2023/04/25 03:44:52;;;;;;;13.50;4.78;;;10.80;99.90;;;;;;4148221;28;20443;-60
2023/04/25 03:46:54;;;;;;;15.95;5.25;;;10.70;99.90;;;;;;4146934;28;20103;-61
2023/04/25 03:48:59;;;;;;;18.45;5.20;;;10.70;99.90;;;;;;4148193;28;20128;-58
2023/04/25 03:51:01;;;;;;;14.30;3.92;;;10.80;99.90;;;;;;4148064;28;20074;-58
2023/04/25 03:53:03;;;;;;;13.82;4.82;;;10.60;99.90;;;;;;4130744;28;20054;-57
2023/04/25 03:55:06;;;;;;;22.63;5.30;;;10.70;99.90;;;;;;4148043;28;20456;-57
2023/04/25 03:57:08;;;;;;;13.57;4.38;;;10.70;99.90;;;;;;4146777;28;20038;-56
2023/04/25 03:59:10;;;;;;;13.35;5.03;;;10.70;99.90;;;;;;4148042;28;20046;-56
2023/04/25 04:01:12;;;;;;;12.75;4.90;;;10.70;99.90;;;;;;4148266;28;20398;-56
2023/04/25 04:03:14;;;;;;;17.35;4.65;;;10.70;99.90;;;;;;4147693;28;20422;-56
2023/04/25 04:05:18;;;;;;;14.93;4.80;;;10.70;99.90;;;;;;4131726;28;20443;-56
2023/04/25 04:07:21;;;;;;;13.38;3.72;;;10.70;99.90;;;;;;4130841;28;20129;-56
2023/04/25 04:09:23;;;;;;;19.25;4.88;;;10.60;99.90;;;;;;4131779;28;20078;-56
2023/04/25 04:11:25;;;;;;;18.90;4.85;;;10.60;99.90;;;;;;4114361;28;20439;-56
2023/04/25 04:13:28;;;;;;;18.45;4.72;;;10.60;99.90;;;;;;4131074;28;20054;-55
2023/04/25 04:15:32;;;;;;;11.10;3.90;;;10.70;99.90;;;;;;4131517;28;20129;-57
2023/04/25 04:17:35;;;;;;;10.18;4.07;;;10.70;99.90;;;;;;4123050;28;20051;-65
2023/04/25 04:19:37;;;;;;;12.45;5.15;;;10.90;99.90;;;;;;4131874;28;20046;-55
2023/04/25 04:21:40;;;;;;;13.80;4.25;;;10.80;99.90;;;;;;4131503;28;20126;-61
2023/04/25 04:23:42;;;;;;;14.15;4.82;;;10.80;99.90;;;;;;4114114;28;20139;-59
2023/04/25 04:25:44;;;;;;;15.95;4.90;;;10.80;99.90;;;;;;4130713;28;20058;-57
2023/04/25 04:27:47;;;;;;;10.85;4.45;;;10.80;99.90;;;;;;4130589;28;20110;-56
2023/04/25 04:29:50;;;;;;;14.77;5.35;;;10.80;99.90;;;;;;4138350;28;20050;-62
2023/04/25 04:31:52;;;;;;;19.63;4.65;;;10.80;99.90;;;;;;4160173;28;20045;-58
2023/04/25 04:33:55;;;;;;;14.43;5.10;;;10.80;99.90;;;;;;4164294;28;20505;-59
2023/04/25 04:35:57;;;;;;;16.17;5.05;;;10.90;99.90;;;;;;4163096;28;20060;-58
2023/04/25 04:38:00;;;;;;;14.23;5.38;;;10.90;99.90;;;;;;4163847;28;20050;-63
2023/04/25 04:40:04;;;;;;;15.25;4.70;;;10.90;99.90;;;;;;4163804;28;20479;-59
2023/04/25 04:42:08;;;;;;;14.48;4.45;;;10.90;99.90;;;;;;4163899;28;20115;-58
2023/04/25 04:44:10;;;;;;;17.85;5.20;;;10.90;99.90;;;;;;4163317;28;20418;-58
2023/04/25 04:46:12;;;;;;;13.35;4.72;;;10.90;99.90;;;;;;4162986;28;20253;-58
2023/04/25 04:48:14;;;;;;;15.90;5.00;;;10.80;99.90;;;;;;4163624;28;20433;-58
2023/04/25 04:50:16;;;;;;;14.80;5.25;;;10.90;99.90;;;;;;4163970;28;20049;-58
2023/04/25 04:52:19;;;;;;;17.35;5.95;;;10.90;99.90;;;;;;4164231;28;20051;-63
2023/04/25 04:54:22;;;;;;;12.10;5.35;;;10.80;99.90;;;;;;4164113;28;20053;-58
2023/04/25 04:56:25;;;;;;;17.88;5.63;;;10.80;99.90;;;;;;4163180;28;20107;-58
2023/04/25 04:58:29;;;;;;;19.08;5.93;;;10.90;99.90;;;;;;4163434;28;20050;-58
2023/04/25 05:00:31;;;;;;;16.50;5.20;;;11.00;99.90;;;;;;4164126;28;20084;-55
2023/04/25 05:02:34;;;;;;;13.93;5.07;;;10.90;99.90;;;;;;4146445;28;20125;-56
2023/04/25 05:04:36;;;;;;;19.48;5.95;;;11.00;99.90;;;;;;4151302;28;20518;-55
2023/04/25 05:06:38;;;;;;;18.30;5.65;;;10.90;99.90;;;;;;4146283;28;20046;-58
2023/04/25 05:08:40;;;;;;;16.55;5.57;;;10.90;99.90;;;;;;4147501;28;20058;-55
2023/04/25 05:10:44;;;;;;;16.92;5.75;;;10.80;99.90;;;;;;4147558;28;20057;-61
2023/04/25 05:12:46;;;;;;;15.38;6.15;;;10.90;99.90;;;;;;4147263;28;20096;-56
2023/04/25 05:14:48;;;;;;;16.05;5.95;;;10.90;99.90;;;;;;4147548;28;20049;-55
2023/04/25 05:16:50;;;;;;;19.38;5.78;;;10.90;99.90;;;;;;4129228;28;20042;-60
2023/04/25 05:18:53;;;;;;;18.48;6.10;;;10.90;99.90;;;;;;4147620;28;20057;-57
2023/04/25 05:20:55;;;;;;;14.90;5.10;;;11.00;99.90;;;;;;4147856;28;20072;-58
2023/04/25 05:22:57;;;;;;;13.40;5.13;;;11.00;99.90;;;;;;4147313;28;20096;-58
2023/04/25 05:24:59;;;;;;;11.15;5.20;;;11.00;99.90;;;;;;4147393;28;20442;-58
2023/04/25 05:27:03;;;;;;;13.90;6.32;;;11.00;99.90;;;;;;4145911;28;20054;-57
2023/04/25 05:29:06;;;;;;;16.23;6.05;;;11.00;99.90;;;;;;4147208;28;20053;-56
2023/04/25 05:31:09;;;;;;;14.50;4.90;;;10.90;99.90;;;;;;4147125;28;20081;-57
2023/04/25 05:33:11;;;;;;;16.00;6.65;;;11.00;99.90;;;;;;4147569;28;20054;-58
2023/04/25 05:35:14;;;;;;;13.90;5.63;;;11.00;99.90;;;;;;4150279;28;20049;-58
2023/04/25 05:37:16;;;;;;;15.32;5.43;;;11.10;99.90;;;;;;4149628;28;20392;-57
2023/04/25 05:39:18;;;;;;;11.38;5.78;;;11.10;99.90;;;;;;4150410;28;20100;-57
2023/04/25 05:41:20;;;;;;;17.13;6.22;;;11.10;99.90;;;;;;4149761;28;20053;-57
2023/04/25 05:43:24;;;;;;;14.50;5.50;;;11.10;99.90;;;;;;4150204;28;20125;-58
2023/04/25 05:45:26;;;;;;;13.88;6.70;;;11.20;99.90;;;;;;4132868;28;20042;-58
2023/04/25 05:47:28;;;;;;;18.20;6.70;;;11.10;99.90;;;;;;4148999;28;20054;-54
2023/04/25 05:49:30;;;;;;;19.08;7.05;;;11.00;99.90;;;;;;4150242;28;20045;-54
2023/04/25 05:51:32;;;;;;;20.38;6.78;;;10.90;99.90;;;;;;4132720;28;20052;-55
2023/04/25 05:53:34;;;;;;;26.95;7.43;;;11.10;99.90;;;;;;4150162;28;20046;-54
2023/04/25 05:55:40;;;;;;;17.05;6.18;;;11.00;99.90;;;;;;4132216;28;20227;-55
2023/04/25 05:57:45;;;;;;;19.85;6.78;;;11.00;99.90;;;;;;4149065;28;20132;-55
2023/04/25 05:59:48;;;;;;;22.63;7.35;;;11.00;99.90;;;;;;4150063;28;20042;-54
2023/04/25 06:01:51;;;;;;;13.82;6.70;;;10.90;99.90;;;;;;4150057;28;20088;-55
2023/04/25 06:03:53;;;;;;;18.77;6.28;;;11.10;99.90;;;;;;4150168;28;20060;-54
2023/04/25 06:05:59;;;;;;;15.00;6.03;;;11.10;99.90;;;;;;4149816;28;20112;-55
2023/04/25 06:08:01;;;;;;;14.60;6.97;;;11.00;99.90;;;;;;4149500;28;20593;-53
2023/04/25 06:10:11;;;;;;;20.58;7.20;;;11.10;99.90;;;;;;4151204;28;20050;-61
2023/04/25 06:12:14;;;;;;;11.60;5.00;;;11.00;99.90;;;;;;4151049;28;20050;-56
2023/04/25 06:14:18;;;;;;;19.35;6.07;;;10.90;99.90;;;;;;4150315;28;20096;-53
2023/04/25 06:16:22;;;;;;;19.38;5.90;;;11.00;99.90;;;;;;4148675;28;20049;-55
2023/04/25 06:18:24;;;;;;;12.38;5.03;;;11.10;99.90;;;;;;4149804;28;20218;-54
2023/04/25 06:20:28;;;;;;;11.77;4.70;;;11.10;99.90;;;;;;4149946;28;20050;-56
2023/04/25 06:22:30;;;;;;;8.50;4.22;;;11.10;99.90;;;;;;4149770;28;20051;-54
2023/04/25 06:24:33;;;;;;;10.90;3.90;;;11.10;99.90;;;;;;4149060;28;20050;-55
2023/04/25 06:26:35;;;;;;;17.67;4.80;;;11.10;99.90;;;;;;4148577;28;20065;-55
2023/04/25 06:28:38;;;;;;;13.55;4.38;;;11.10;99.90;;;;;;4149189;28;20048;-56
2023/04/25 06:30:40;;;;;;;10.85;3.63;;;11.10;99.90;;;;;;4150060;28;20117;-55
2023/04/25 06:32:44;;;;;;;14.98;4.25;;;11.10;99.90;;;;;;4165615;28;20506;-55
2023/04/25 06:34:46;;;;;;;8.35;3.50;;;11.20;99.90;;;;;;4166089;28;20053;-54
2023/04/25 06:36:48;;;;;;;6.78;3.40;;;11.10;99.90;;;;;;4164731;28;20403;-54
2023/04/25 06:38:50;;;;;;;5.43;3.50;;;11.10;99.90;;;;;;4148062;28;20046;-55
2023/04/25 06:40:52;;;;;;;9.93;3.95;;;11.10;99.90;;;;;;4165654;28;20387;-55
2023/04/25 06:42:55;;;;;;;7.38;3.63;;;11.20;99.90;;;;;;4165599;28;20084;-56
2023/04/25 06:44:57;;;;;;;10.60;4.13;;;11.20;99.90;;;;;;4165308;28;20053;-54
2023/04/25 06:46:59;;;;;;;8.07;4.00;;;11.10;99.90;;;;;;4164713;28;20123;-54
2023/04/25 06:49:02;;;;;;;10.55;4.65;;;11.10;99.90;;;;;;4165477;28;20046;-55
2023/04/25 06:51:05;;;;;;;11.50;4.68;;;11.20;99.90;;;;;;4165733;28;20053;-55
2023/04/25 06:53:08;;;;;;;9.60;5.05;;;11.30;99.90;;;;;;4164939;28;20053;-55
2023/04/25 06:55:10;;;;;;;12.32;5.95;;;11.20;99.90;;;;;;4165540;28;20049;-55
2023/04/25 06:57:15;;;;;;;17.30;6.20;;;11.20;99.90;;;;;;4164416;28;20049;-54
2023/04/25 06:59:17;;;;;;;;;;;11.20;99.90;;;;;;4166165;28;20507;-54
2023/04/25 07:01:19;;;;;;;12.30;8.13;;;11.20;99.90;;;;;;4165266;28;20007;-55
2023/04/25 07:03:22;;;;;;;17.77;8.77;;;11.10;99.90;;;;;;4165512;28;20057;-54
2023/04/25 07:05:25;;;;;;;19.02;10.25;;;11.10;99.90;;;;;;4147664;28;20060;-55
2023/04/25 07:07:27;;;;;;;19.67;10.45;;;11.10;99.90;;;;;;4163836;28;20049;-55
2023/04/25 07:09:30;;;;;;;19.65;10.55;;;11.00;99.90;;;;;;4165142;28;20044;-55
2023/04/25 07:11:32;;;;;;;17.73;9.82;;;10.90;99.90;;;;;;4165137;28;20050;-55
2023/04/25 07:13:34;;;;;;;25.67;12.05;;;10.90;99.90;;;;;;4165125;28;20061;-54
2023/04/25 07:15:36;;;;;;;21.90;11.68;;;10.80;99.90;;;;;;4165089;28;20053;-55
2023/04/25 07:17:38;;;;;;;20.65;11.40;;;10.70;99.90;;;;;;4164306;28;20108;-54
2023/04/25 07:19:43;;;;;;;27.23;12.23;;;10.60;99.90;;;;;;4165322;28;20473;-55
2023/04/25 07:21:47;;;;;;;25.10;11.07;;;10.60;99.90;;;;;;4160504;28;20076;-57
2023/04/25 07:23:49;;;;;;;19.70;10.60;;;10.50;99.90;;;;;;4141616;28;20072;-55
2023/04/25 07:25:51;;;;;;;27.92;12.40;;;10.40;99.90;;;;;;4132228;28;20046;-55
2023/04/25 07:27:53;;;;;;;29.20;12.57;;;10.20;99.90;;;;;;4137894;28;20050;-54
2023/04/25 07:29:55;;;;;;;25.38;10.75;;;10.20;99.90;;;;;;4131109;28;20127;-55
2023/04/25 07:31:58;;;;;;;31.58;12.38;;;10.10;99.90;;;;;;4154709;28;20045;-56
2023/04/25 07:34:00;;;;;;;21.02;11.38;;;10.20;99.90;;;;;;4164650;28;20060;-55
2023/04/25 07:36:03;;;;;;;23.48;11.48;;;10.20;99.90;;;;;;4147044;28;20049;-57
2023/04/25 07:38:07;;;;;;;21.25;10.73;;;10.30;99.90;;;;;;4145572;28;20481;-55
2023/04/25 07:40:10;;;;;;;22.35;11.25;;;10.20;99.90;;;;;;4147432;28;20042;-55
2023/04/25 07:42:15;;;;;;;30.27;11.23;;;10.20;99.90;;;;;;4140991;28;20046;-55
2023/04/25 07:44:18;;;;;;;31.40;11.93;;;10.20;99.90;;;;;;4142907;28;20049;-55
2023/04/25 07:46:20;;;;;;;25.25;11.55;;;10.30;99.90;;;;;;4138922;28;20769;-55
2023/04/25 07:48:22;;;;;;;29.65;12.13;;;10.40;99.90;;;;;;4139370;28;20129;-54
2023/04/25 07:50:24;;;;;;;26.27;9.98;;;10.40;99.90;;;;;;4139387;28;20454;-56
2023/04/25 07:52:26;;;;;;;22.13;8.73;;;10.40;99.90;;;;;;4140490;28;20042;-56
2023/04/25 07:54:30;;;;;;;28.40;11.50;;;10.70;99.90;;;;;;4136273;28;20046;-56
2023/04/25 07:56:32;;;;;;;34.25;11.23;;;10.80;99.70;;;;;;4135054;28;20502;-56
2023/04/25 07:58:53;;;;;;;28.48;11.10;;;10.70;99.90;;;;;;4145581;28;20050;-57
2023/04/25 08:00:55;;;;;;;28.45;10.65;;;10.90;99.90;;;;;;4158642;28;20413;-54
2023/04/25 08:02:58;;;;;;;22.00;10.88;;;11.00;99.90;;;;;;4147113;28;20081;-55
2023/04/25 08:05:00;;;;;;;25.65;11.65;;;11.00;99.90;;;;;;4117692;28;20051;-55
2023/04/25 08:07:03;;;;;;;25.98;11.23;;;10.90;99.70;;;;;;4131017;28;20050;-55
2023/04/25 08:09:05;;;;;;;27.92;10.25;;;11.00;99.60;;;;;;4124586;28;20047;-55
2023/04/25 08:11:08;;;;;;;25.48;10.95;;;11.10;99.50;;;;;;4143916;28;20050;-54
2023/04/25 08:13:10;;;;;;;22.45;10.75;;;11.30;99.60;;;;;;4146995;28;20173;-53
2023/04/25 08:15:13;;;;;;;26.35;10.55;;;11.40;99.10;;;;;;4144354;28;20097;-53
2023/04/25 08:17:15;;;;;;;22.23;10.82;;;11.20;99.10;;;;;;4134695;28;20046;-52
2023/04/25 08:19:17;;;;;;;24.15;9.77;;;11.10;99.30;;;;;;4142780;28;20153;-55
2023/04/25 08:21:20;;;;;;;22.48;10.02;;;11.20;99.50;;;;;;4145368;28;20080;-55
2023/04/25 08:23:22;;;;;;;26.40;11.55;;;11.20;99.70;;;;;;4147025;28;20107;-55
2023/04/25 08:25:24;;;;;;;19.88;9.50;;;11.20;99.50;;;;;;4136132;28;20052;-56
2023/04/25 08:27:27;;;;;;;19.88;9.55;;;11.10;99.80;;;;;;4145198;28;20262;-60
2023/04/25 08:29:29;;;;;;;20.27;9.52;;;11.00;99.90;;;;;;4145653;28;20048;-55
2023/04/25 08:31:31;;;;;;;29.00;9.55;;;11.00;99.90;;;;;;4154719;28;20043;-55
2023/04/25 08:33:34;;;;;;;28.15;8.75;;;11.00;99.90;;;;;;4149600;28;20050;-55
2023/04/25 08:35:36;;;;;;;36.25;9.93;;;11.00;99.80;;;;;;4146905;28;20038;-53
2023/04/25 08:37:38;;;;;;;25.10;8.95;;;10.90;99.30;;;;;;4146684;28;20146;-59
2023/04/25 08:39:41;;;;;;;26.77;8.98;;;10.90;99.70;;;;;;4147208;28;20046;-57
2023/04/25 08:41:44;;;;;;;22.90;8.57;;;10.90;99.30;;;;;;4140850;28;20054;-56
2023/04/25 08:43:48;;;;;;;19.52;8.15;;;10.80;99.30;;;;;;4142942;28;20140;-56
2023/04/25 08:45:56;;;;;;;29.38;8.93;;;10.80;99.40;;;;;;4146574;28;20053;-58
2023/04/25 08:48:00;;;;;;;23.23;8.35;;;10.80;99.20;;;;;;4145984;28;20137;-63
2023/04/25 08:50:04;;;;;;;25.60;9.17;;;11.10;99.00;;;;;;4146117;28;20121;-57
2023/04/25 08:52:10;;;;;;;21.17;9.13;;;11.20;98.20;;;;;;4146884;28;20456;-55
2023/04/25 08:54:14;;;;;;;26.65;8.43;;;11.40;98.10;;;;;;4139742;28;20305;-54
2023/04/25 08:56:22;;;;;;;39.15;9.45;;;11.50;98.20;;;;;;4135854;28;20039;-54
2023/04/25 08:58:24;;;;;;;26.80;8.77;;;11.70;97.80;;;;;;4130646;28;20077;-54
2023/04/25 09:00:28;;;;;;;29.38;8.77;;;11.70;97.60;;;;;;4142282;28;20133;-53
2023/04/25 09:02:30;;;;;;;21.80;8.07;;;11.60;97.80;;;;;;4131536;28;20098;-53
2023/04/25 09:04:33;;;;;;;23.13;7.70;;;11.40;98.10;;;;;;4129969;28;20459;-54
2023/04/25 09:06:35;;;;;;;22.52;8.18;;;11.20;97.70;;;;;;4137953;28;20455;-53
2023/04/25 09:08:39;;;;;;;28.67;7.70;;;11.20;98.10;;;;;;4140403;28;20042;-53
2023/04/25 09:10:42;;;;;;;20.00;7.68;;;11.20;97.30;;;;;;4145476;28;20111;-55
2023/04/25 09:13:03;;;;;;;18.58;7.25;;;11.20;97.20;;;;;;4149822;28;20100;-56
2023/04/25 09:15:07;;;;;;;26.83;6.88;;;11.40;97.60;;;;;;4140632;28;20042;-55
2023/04/25 09:17:10;;;;;;;16.15;6.18;;;11.70;97.30;;;;;;4145078;28;20049;-55
2023/04/25 09:19:22;;;;;;;18.87;6.50;;;12.00;97.00;;;;;;4148313;28;20119;-55
2023/04/25 09:21:39;;;;;;;20.30;7.60;;;12.00;96.40;;;;;;4144835;28;20047;-55
2023/04/25 09:23:43;;;;;;;37.08;8.55;;;11.90;96.40;;;;;;4142097;28;20053;-55
2023/04/25 09:25:48;;;;;;;23.30;7.78;;;11.90;96.70;;;;;;4140723;28;20041;-55
2023/04/25 09:27:51;;;;;;;18.30;6.97;;;11.90;96.70;;;;;;4148213;28;20056;-55
2023/04/25 09:29:59;;;;;;;27.33;7.40;;;11.60;96.90;;;;;;4146503;28;20133;-56
2023/04/25 09:32:27;;;;;;;29.10;7.97;;;11.50;97.10;;;;;;4149728;28;20064;-56
2023/04/25 09:34:39;;;;;;;22.85;7.43;;;11.60;96.70;;;;;;4135529;28;20132;-55
2023/04/25 09:36:42;;;;;;;17.45;6.93;;;11.40;96.60;;;;;;4144555;28;20153;-55
2023/04/25 09:38:46;;;;;;;26.80;7.45;;;11.30;96.70;;;;;;4133022;28;20424;-57
2023/04/25 09:40:49;;;;;;;29.95;7.60;;;11.50;96.90;;;;;;4138744;28;20526;-56
2023/04/25 09:42:51;;;;;;;24.10;6.80;;;11.50;95.90;;;;;;4154001;28;20049;-56
2023/04/25 09:44:55;;;;;;;22.10;6.88;;;11.60;96.10;;;;;;4144929;28;20137;-54
2023/04/25 09:46:58;;;;;;;16.90;6.88;;;11.80;95.60;;;;;;4141940;28;20053;-52
2023/04/25 09:49:07;;;;;;;23.98;6.65;;;11.80;95.50;;;;;;4149458;28;20045;-54
2023/04/25 09:51:10;;;;;;;21.30;6.72;;;12.00;95.60;;;;;;4141573;28;20065;-52
2023/04/25 09:53:16;;;;;;;22.60;6.38;;;12.20;94.80;;;;;;4138806;28;20046;-54
2023/04/25 09:55:19;;;;;;;14.98;5.82;;;12.40;94.70;;;;;;4149601;28;20045;-53
2023/04/25 09:57:22;;;;;;;20.50;6.28;;;12.40;94.70;;;;;;4131653;28;20054;-59
2023/04/25 09:59:25;;;;;;;19.63;6.03;;;12.60;95.10;;;;;;4150256;28;20133;-54
2023/04/25 10:01:27;;;;;;;20.98;6.47;;;12.60;94.60;;;;;;4145232;28;20479;-52
2023/04/25 10:03:31;;;;;;;19.08;5.72;;;12.60;94.50;;;;;;4123264;28;20389;-62
2023/04/25 10:05:37;;;;;;;23.13;6.57;;;12.90;94.90;;;;;;4133787;28;20050;-56
2023/04/25 10:07:40;;;;;;;22.90;6.47;;;13.00;94.50;;;;;;4136095;28;20121;-56
2023/04/25 10:09:47;;;;;;;12.88;4.82;;;12.80;94.10;;;;;;4149383;28;20049;-52
2023/04/25 10:11:50;;;;;;;16.77;5.57;;;12.90;94.70;;;;;;4144818;28;20117;-55
2023/04/25 10:13:53;;;;;;;17.45;5.35;;;13.00;94.90;;;;;;4149242;28;20076;-56
2023/04/25 10:15:57;;;;;;;13.77;4.55;;;13.20;94.10;;;;;;4148694;28;20093;-56
2023/04/25 10:18:00;;;;;;;16.77;5.40;;;13.30;94.70;;;;;;4135414;28;20124;-56
2023/04/25 10:20:06;;;;;;;12.15;5.15;;;13.30;93.70;;;;;;4145151;28;20050;-56
2023/04/25 10:22:16;;;;;;;16.83;5.07;;;13.30;93.90;;;;;;4138602;28;20125;-58
2023/04/25 10:24:25;;;;;;;16.67;5.35;;;13.30;93.60;;;;;;4142087;28;20042;-55
2023/04/25 10:26:27;;;;;;;16.15;4.35;;;13.30;94.10;;;;;;4148314;28;20042;-56
2023/04/25 10:28:55;;;;;;;18.58;4.88;;;13.30;93.20;;;;;;4137136;28;20050;-56
2023/04/25 10:30:58;;;;;;;11.95;4.13;;;13.30;93.00;;;;;;4151453;28;20049;-55
2023/04/25 10:33:01;;;;;;;13.27;4.63;;;13.30;92.70;;;;;;4148135;28;20145;-57
2023/04/25 10:35:15;;;;;;;13.68;4.93;;;13.10;92.90;;;;;;4136136;28;20097;-59
2023/04/25 10:37:19;;;;;;;15.88;5.28;;;13.10;93.00;;;;;;4132561;28;20052;-57